Time;durP1;ratioP1;P1;durP2;ratioP2;P2;SDS_P1;SDS_P2;PMS_P1;PMS_P2;Temp;Humidity;BMP_temperature;BMP_pressure;BME280_temperature;BME280_humidity;BME280_pressure;Samples;Min_cycle;Max_cycle;Signal;HPM_P1;HPM_P2
2022/10/03 00:00:08;;;;;;;2.67;1.30;;;;;;;12.57;100.00;100277.94;5589379;31;34864;-68
2022/10/03 00:03:35;;;;;;;3.70;1.30;;;;;;;12.54;100.00;100279.09;5589390;31;34186;-68
2022/10/03 00:07:22;;;;;;;1.92;1.10;;;;;;;12.57;100.00;100281.44;5589306;31;35064;-67
2022/10/03 00:10:48;;;;;;;2.28;1.17;;;;;;;12.56;100.00;100287.75;5589264;31;34693;-67
2022/10/03 00:14:09;;;;;;;1.87;1.25;;;;;;;12.53;100.00;100301.44;5589146;31;34156;-67
2022/10/03 00:17:38;;;;;;;2.20;1.10;;;;;;;12.48;100.00;100305.66;5589589;31;34228;-67
2022/10/03 00:21:11;;;;;;;2.25;1.25;;;;;;;12.41;100.00;100286.06;5589070;31;34911;-69
2022/10/03 00:24:23;;;;;;;2.55;1.00;;;;;;;12.40;100.00;100300.38;5589463;31;34685;-67
2022/10/03 00:27:47;;;;;;;2.03;1.12;;;;;;;12.33;100.00;100287.00;5589407;31;34209;-68
2022/10/03 00:31:22;;;;;;;3.17;1.20;;;;;;;12.32;100.00;100298.63;5587760;31;34326;-68
2022/10/03 00:34:31;;;;;;;2.95;1.37;;;;;;;12.31;100.00;100301.47;5588990;31;34153;-68
2022/10/03 00:37:45;;;;;;;3.12;1.30;;;;;;;12.26;100.00;100304.66;5589127;31;34637;-67
2022/10/03 00:41:20;;;;;;;1.75;1.20;;;;;;;12.26;100.00;100302.00;5588822;31;34313;-67
2022/10/03 00:45:03;;;;;;;2.15;1.10;;;;;;;12.23;100.00;100302.38;5588867;31;34157;-68
2022/10/03 00:48:20;;;;;;;4.37;1.30;;;;;;;12.14;100.00;100300.81;5574906;31;33064;-67
2022/10/03 00:51:47;;;;;;;2.58;1.45;;;;;;;12.13;100.00;100304.47;5588891;31;34292;-69
2022/10/03 00:55:05;;;;;;;4.90;1.30;;;;;;;12.10;100.00;100302.19;5588756;31;34270;-66
2022/10/03 00:58:27;;;;;;;2.50;1.23;;;;;;;12.09;100.00;100304.00;5588673;31;34213;-67
2022/10/03 01:01:44;;;;;;;5.00;1.42;;;;;;;12.07;100.00;100308.66;5574305;31;32670;-67
2022/10/03 01:05:14;;;;;;;3.62;1.40;;;;;;;11.94;100.00;100297.81;5588459;31;34247;-68
2022/10/03 01:08:47;;;;;;;2.33;1.30;;;;;;;11.98;100.00;100283.16;5588384;31;34171;-66
2022/10/03 01:12:13;;;;;;;2.85;1.40;;;;;;;12.00;100.00;100282.97;5588266;31;34260;-69
2022/10/03 01:15:42;;;;;;;5.80;1.50;;;;;;;11.91;100.00;100284.06;5588297;31;35605;-68
2022/10/03 01:19:04;;;;;;;3.85;1.52;;;;;;;11.86;100.00;100297.06;5588216;31;34185;-67
2022/10/03 01:22:45;;;;;;;2.83;1.20;;;;;;;11.86;100.00;100289.09;5588167;31;34313;-67
2022/10/03 01:26:25;;;;;;;3.08;1.50;;;;;;;11.82;100.00;100279.78;5588273;31;34252;-69
2022/10/03 01:33:30;;;;;;;2.25;1.50;;;;;;;11.79;100.00;100301.41;5588286;31;34838;-67
2022/10/03 01:36:46;;;;;;;;;;;;;;;11.80;100.00;100301.25;5562201;31;34196;-68
2022/10/03 01:40:04;;;;;;;3.10;1.40;;;;;;;11.78;100.00;100305.91;5587712;31;35039;-67
2022/10/03 01:43:32;;;;;;;4.22;1.67;;;;;;;11.68;100.00;100311.41;5590216;31;34892;-67
2022/10/03 01:47:19;;;;;;;3.03;1.30;;;;;;;11.61;100.00;100312.31;5590639;31;34148;-67
2022/10/03 01:50:45;;;;;;;2.70;1.77;;;;;;;11.42;100.00;100307.44;5576255;31;33649;-67
2022/10/03 01:54:15;;;;;;;3.05;1.40;;;;;;;11.46;100.00;100304.28;5590699;31;34634;-67
2022/10/03 01:57:49;;;;;;;2.92;1.58;;;;;;;11.41;100.00;100313.75;5590540;31;34961;-67
2022/10/03 02:01:08;;;;;;;3.67;1.80;;;;;;;11.38;100.00;100312.25;5590540;31;34905;-68
2022/10/03 02:04:40;;;;;;;4.90;1.90;;;;;;;11.44;100.00;100310.75;5590518;31;34938;-67
2022/10/03 02:08:05;;;;;;;3.85;2.20;;;;;;;11.44;100.00;100310.75;5590565;31;34828;-68
2022/10/03 02:11:28;;;;;;;4.72;2.08;;;;;;;11.43;100.00;100304.59;5590743;31;34287;-69
2022/10/03 02:14:47;;;;;;;5.03;1.80;;;;;;;11.55;100.00;100299.72;5590373;31;34268;-68
2022/10/03 02:18:02;;;;;;;4.22;1.80;;;;;;;11.61;100.00;100307.84;5590395;31;34820;-68
2022/10/03 02:21:13;;;;;;;3.45;1.90;;;;;;;11.60;100.00;100302.69;5590335;31;34154;-68
2022/10/03 02:24:41;;;;;;;5.30;1.85;;;;;;;11.61;100.00;100305.19;5590391;31;33291;-67
2022/10/03 02:28:09;;;;;;;4.72;2.10;;;;;;;11.69;100.00;100315.75;5590353;31;34859;-68
2022/10/03 02:31:22;;;;;;;5.07;2.28;;;;;;;11.63;100.00;100323.56;5590276;31;34757;-67
2022/10/03 02:35:25;;;;;;;4.62;1.80;;;;;;;11.60;100.00;100329.25;5590301;31;34429;-68
2022/10/03 02:39:09;;;;;;;4.03;2.17;;;;;;;11.60;100.00;100340.72;5510688;32;34734;-67
2022/10/03 02:42:43;;;;;;;4.65;1.90;;;;;;;11.55;100.00;100344.88;5510324;32;34511;-68
2022/10/03 02:46:38;;;;;;;5.95;2.03;;;;;;;11.51;100.00;100340.94;5510620;32;34032;-67
2022/10/03 02:50:04;;;;;;;4.40;2.20;;;;;;;11.50;100.00;100349.91;5510641;32;34212;-68
2022/10/03 02:53:48;;;;;;;3.35;2.10;;;;;;;11.49;100.00;100342.94;5509831;32;34187;-67
2022/10/03 02:57:16;;;;;;;4.22;2.20;;;;;;;11.47;100.00;100352.91;5510602;32;34381;-68
2022/10/03 03:00:39;;;;;;;3.08;2.05;;;;;;;11.46;100.00;100348.59;5510492;32;34623;-69
2022/10/03 03:03:55;;;;;;;5.47;2.10;;;;;;;11.44;100.00;100351.41;5510392;32;34409;-67
2022/10/03 03:07:14;;;;;;;8.05;2.60;;;;;;;11.34;100.00;100348.16;5510430;32;34194;-67
2022/10/03 03:10:57;;;;;;;3.62;1.92;;;;;;;11.35;100.00;100352.47;5587114;31;34167;-66
2022/10/03 03:14:31;;;;;;;6.28;2.42;;;;;;;11.32;100.00;100353.66;5589925;31;34322;-68
2022/10/03 03:18:11;;;;;;;3.25;2.10;;;;;;;11.29;100.00;100353.16;5590153;31;34426;-67
2022/10/03 03:21:40;;;;;;;3.62;2.20;;;;;;;11.23;100.00;100365.28;5556733;31;34075;-67
2022/10/03 03:25:06;;;;;;;5.85;2.67;;;;;;;11.15;100.00;100364.50;5576501;31;34639;-68
2022/10/03 03:28:19;;;;;;;6.97;2.37;;;;;;;11.07;100.00;100364.53;5589718;31;34103;-67
2022/10/03 03:32:02;;;;;;;6.75;2.70;;;;;;;11.02;100.00;100373.00;5589927;31;34178;-68
2022/10/03 03:35:25;;;;;;;5.37;2.30;;;;;;;10.99;100.00;100375.19;5576702;31;34270;-68
2022/10/03 03:38:55;;;;;;;5.97;2.65;;;;;;;11.01;100.00;100371.34;5589788;31;34790;-67
2022/10/03 03:42:12;;;;;;;4.37;2.60;;;;;;;10.90;100.00;100371.69;5569355;32;34313;-67
2022/10/03 03:45:53;;;;;;;6.95;2.42;;;;;;;10.85;100.00;100361.59;5569773;32;34118;-67
2022/10/03 03:49:20;;;;;;;7.85;2.80;;;;;;;10.84;100.00;100365.25;5569806;32;34121;-67
2022/10/03 03:52:47;;;;;;;6.75;2.55;;;;;;;10.80;100.00;100386.97;5569895;32;34919;-65
2022/10/03 03:56:15;;;;;;;6.35;2.60;;;;;;;10.79;100.00;100374.75;5569815;32;34730;-67
2022/10/03 03:59:40;;;;;;;4.95;2.65;;;;;;;10.78;100.00;100381.03;5569850;32;34530;-68
2022/10/03 04:03:08;;;;;;;6.32;2.70;;;;;;;10.80;100.00;100382.50;5569797;32;34245;-68
2022/10/03 04:06:45;;;;;;;12.85;2.97;;;;;;;10.82;100.00;100380.53;5569417;32;35422;-67
2022/10/03 04:10:04;;;;;;;5.85;2.90;;;;;;;10.84;100.00;100375.84;5569666;32;34091;-66
2022/10/03 04:13:20;;;;;;;3.92;2.50;;;;;;;10.95;100.00;100372.03;5568869;32;32824;-67
2022/10/03 04:20:23;;;;;;;5.07;2.83;;;;;;;10.90;100.00;100369.06;5569580;32;34544;-67
2022/10/03 04:23:43;;;;;;;7.97;2.75;;;;;;;10.93;100.00;100378.50;5569664;32;34444;-67
2022/10/03 04:26:58;;;;;;;5.35;2.97;;;;;;;10.89;100.00;100378.03;5569445;32;34888;-68
2022/10/03 04:30:03;;;;;;;6.00;3.00;;;;;;;10.86;100.00;100389.81;5569469;32;34915;-68
2022/10/03 04:33:31;;;;;;;5.12;2.85;;;;;;;10.89;100.00;100378.84;5569411;32;34542;-68
2022/10/03 04:37:14;;;;;;;7.45;3.42;;;;;;;10.90;100.00;100396.41;5569394;32;34537;-68
2022/10/03 04:40:39;;;;;;;8.05;3.33;;;;;;;10.89;100.00;100378.03;5573840;31;34929;-68
2022/10/03 04:43:52;;;;;;;7.07;3.17;;;;;;;10.84;100.00;100391.78;5588783;31;34172;-67
2022/10/03 04:47:15;;;;;;;5.45;2.92;;;;;;;10.76;100.00;100402.44;5588712;31;34238;-68
2022/10/03 04:50:56;;;;;;;5.95;2.95;;;;;;;10.83;100.00;100402.59;5588457;31;34235;-66
2022/10/03 04:54:21;;;;;;;8.15;3.00;;;;;;;10.87;100.00;100404.72;5574812;31;34007;-68
2022/10/03 04:57:43;;;;;;;4.05;3.00;;;;;;;10.83;100.00;100413.19;5588526;31;34172;-66
2022/10/03 05:01:22;;;;;;;5.53;2.90;;;;;;;10.86;100.00;100428.78;5588353;31;34821;-67
2022/10/03 05:05:09;;;;;;;6.22;3.08;;;;;;;10.87;100.00;100418.00;5588278;31;34859;-67
2022/10/03 05:08:39;;;;;;;8.07;3.25;;;;;;;10.93;100.00;100426.28;5527072;31;34780;-67
2022/10/03 05:11:59;;;;;;;7.18;2.55;;;;;;;10.90;100.00;100438.88;5587980;31;34307;-67
2022/10/03 05:15:09;;;;;;;10.23;3.25;;;;;;;10.91;100.00;100439.72;5588248;31;34243;-67
2022/10/03 05:18:26;;;;;;;6.87;2.80;;;;;;;10.91;100.00;100442.38;5576752;31;33659;-67
2022/10/03 05:21:49;;;;;;;8.52;3.00;;;;;;;10.96;100.00;100460.44;5590702;31;34213;-68
2022/10/03 05:25:21;;;;;;;10.15;3.00;;;;;;;11.12;100.00;100455.94;5576739;31;32575;-67
2022/10/03 05:28:29;;;;;;;11.20;2.90;;;;;;;11.21;100.00;100454.94;5590614;31;34127;-68
2022/10/03 05:31:43;;;;;;;4.32;2.62;;;;;;;11.25;100.00;100458.91;5590376;31;34902;-68
2022/10/03 05:35:02;;;;;;;7.93;2.78;;;;;;;11.27;100.00;100454.25;5590621;31;34562;-68
2022/10/03 05:38:15;;;;;;;11.90;3.08;;;;;;;11.26;100.00;100451.75;5576553;31;34357;-69
2022/10/03 05:41:25;;;;;;;7.50;2.45;;;;;;;11.30;100.00;100450.41;5590088;31;34844;-68
2022/10/03 05:44:45;;;;;;;5.00;2.47;;;;;;;11.36;100.00;100464.84;5589364;31;34835;-67
2022/10/03 05:48:13;;;;;;;8.90;2.85;;;;;;;11.38;100.00;100460.19;5590170;31;34085;-69
2022/10/03 05:52:02;;;;;;;7.05;2.60;;;;;;;11.38;100.00;100470.81;5576992;31;34400;-68
2022/10/03 05:55:08;;;;;;;5.35;2.37;;;;;;;11.49;100.00;100476.59;5510288;32;34404;-69
2022/10/03 05:58:19;;;;;;;9.77;2.30;;;;;;;11.40;100.00;100482.09;5510189;32;34143;-68
2022/10/03 06:01:47;;;;;;;10.75;2.87;;;;;;;11.43;100.00;100492.38;5510543;32;34121;-68
2022/10/03 06:05:00;;;;;;;6.85;2.50;;;;;;;11.52;100.00;100486.84;5510238;32;34435;-69
2022/10/03 06:08:31;;;;;;;10.27;2.60;;;;;;;11.44;100.00;100480.75;5510438;32;34325;-67
2022/10/03 06:11:53;;;;;;;7.93;2.10;;;;;;;11.57;100.00;100487.19;5510224;32;34814;-68
2022/10/03 06:15:15;;;;;;;3.75;2.03;;;;;;;11.64;100.00;100493.47;5510291;32;34192;-66
2022/10/03 06:18:31;;;;;;;8.93;2.30;;;;;;;11.64;100.00;100496.12;5510492;32;34162;-68
2022/10/03 06:21:52;;;;;;;5.95;2.33;;;;;;;11.61;100.00;100504.47;5509992;32;34281;-69
2022/10/03 06:25:40;;;;;;;8.07;2.05;;;;;;;11.74;100.00;100504.78;5510190;32;34921;-68
2022/10/03 06:29:13;;;;;;;6.93;2.22;;;;;;;11.75;100.00;100510.91;5537388;31;34102;-68
2022/10/03 06:32:46;;;;;;;10.93;2.25;;;;;;;11.80;100.00;100503.25;5590133;31;35451;-68
2022/10/03 06:36:14;;;;;;;7.25;2.40;;;;;;;11.72;100.00;100508.56;5589130;31;34761;-67
2022/10/03 06:39:53;;;;;;;6.75;2.40;;;;;;;11.79;100.00;100517.53;5589810;31;34870;-67
2022/10/03 06:42:56;;;;;;;8.00;2.22;;;;;;;11.87;100.00;100516.66;5589594;31;34604;-68
2022/10/03 06:46:02;;;;;;;9.23;2.28;;;;;;;12.02;100.00;100514.94;5589670;31;35062;-67
2022/10/03 06:49:45;;;;;;;9.48;2.22;;;;;;;11.99;100.00;100524.09;5589501;31;34274;-68
2022/10/03 06:53:14;;;;;;;8.77;2.15;;;;;;;12.02;100.00;100531.72;5575699;31;33836;-67
2022/10/03 06:56:23;;;;;;;8.55;2.42;;;;;;;12.00;100.00;100515.13;5589851;31;34927;-68
2022/10/03 06:59:36;;;;;;;7.18;2.17;;;;;;;11.99;100.00;100531.25;5589732;31;34139;-66
2022/10/03 07:02:55;;;;;;;8.40;2.05;;;;;;;12.06;100.00;100529.53;5589438;31;34204;-69
2022/10/03 07:06:21;;;;;;;5.25;2.00;;;;;;;12.01;100.00;100530.06;5589574;31;34154;-68
2022/10/03 07:09:41;;;;;;;6.85;2.00;;;;;;;12.16;100.00;100525.66;5575668;31;33624;-67
2022/10/03 07:12:50;;;;;;;10.98;2.37;;;;;;;12.22;99.29;100513.50;5589800;31;34334;-68
2022/10/03 07:16:09;;;;;;;8.85;2.42;;;;;;;12.34;97.38;100530.75;5575645;31;34158;-68
2022/10/03 07:19:56;;;;;;;8.13;2.20;;;;;;;12.41;96.22;100531.69;5575732;31;32803;-68
2022/10/03 07:23:48;;;;;;;6.12;1.87;;;;;;;12.60;95.34;100541.87;5575558;31;34311;-68
2022/10/03 07:27:09;;;;;;;6.78;1.98;;;;;;;12.66;93.58;100539.50;5589382;31;34267;-67
2022/10/03 07:30:20;;;;;;;9.55;2.00;;;;;;;12.78;93.85;100538.09;5589571;31;34230;-67
2022/10/03 07:33:55;;;;;;;7.90;1.70;;;;;;;13.34;90.43;100555.44;5589967;31;34684;-68
2022/10/03 07:40:58;;;;;;;11.15;1.98;;;;;;;14.15;83.96;100554.53;5588710;31;35510;-68
2022/10/03 07:44:16;;;;;;;6.28;1.80;;;;;;;14.98;78.09;100560.19;5589268;31;35556;-68
2022/10/03 07:47:50;;;;;;;;;;;;;;;15.61;75.53;100556.59;5589859;31;34264;-69
2022/10/03 07:51:22;;;;;;;8.63;1.70;;;;;;;15.40;75.08;100564.62;5576183;31;34722;-68
2022/10/03 07:54:44;;;;;;;6.22;1.85;;;;;;;14.73;77.77;100554.38;5589314;31;34283;-68
2022/10/03 07:57:56;;;;;;;7.90;1.70;;;;;;;14.95;77.73;100560.56;5575122;31;33023;-68
2022/10/03 08:01:42;;;;;;;4.82;1.60;;;;;;;15.17;76.35;100548.81;5589283;31;34169;-68
2022/10/03 08:05:20;;;;;;;7.32;1.40;;;;;;;15.82;73.87;100565.56;5589214;31;34646;-68
2022/10/03 08:08:54;;;;;;;5.82;1.70;;;;;;;16.22;71.16;100556.69;5588958;31;34113;-69
2022/10/03 08:12:10;;;;;;;5.40;1.62;;;;;;;16.11;70.98;100565.31;5589045;31;34669;-68
2022/10/03 08:15:26;;;;;;;7.68;1.40;;;;;;;16.46;69.64;100563.34;5575328;31;33536;-68
2022/10/03 08:18:51;;;;;;;9.90;1.50;;;;;;;17.24;66.06;100549.28;5589336;31;34966;-70
2022/10/03 08:22:10;;;;;;;4.25;1.23;;;;;;;17.32;66.02;100556.31;5588968;31;34851;-69
2022/10/03 08:25:51;;;;;;;8.98;1.70;;;;;;;17.13;65.04;100566.00;5588893;31;34938;-68
2022/10/03 08:29:04;;;;;;;6.50;1.23;;;;;;;17.32;63.74;100550.94;5588824;31;35541;-68
2022/10/03 08:32:44;;;;;;;9.40;1.70;;;;;;;16.32;65.96;100550.94;5575082;31;33266;-68
2022/10/03 08:36:20;;;;;;;8.18;1.55;;;;;;;16.87;64.37;100558.75;5588720;31;34159;-69
2022/10/03 08:39:27;;;;;;;11.40;2.12;;;;;;;15.05;72.20;100553.06;5574828;31;32783;-69
2022/10/03 08:42:40;;;;;;;8.68;1.80;;;;;;;14.99;74.37;100547.66;5567954;32;33060;-68
2022/10/03 08:46:02;;;;;;;9.27;1.80;;;;;;;14.98;72.50;100546.81;5569092;32;34565;-69
2022/10/03 08:49:41;;;;;;;15.25;2.10;;;;;;;14.22;74.37;100542.09;5568786;32;34600;-68
2022/10/03 08:53:15;;;;;;;9.43;1.80;;;;;;;13.97;76.46;100546.91;5567609;32;34250;-68
2022/10/03 08:56:44;;;;;;;10.68;1.80;;;;;;;14.06;75.48;100547.62;5567928;32;32762;-68
2022/10/03 08:59:58;;;;;;;6.95;1.30;;;;;;;14.44;76.21;100541.13;5568748;32;34926;-67
2022/10/03 09:03:20;;;;;;;5.65;1.60;;;;;;;14.39;75.43;100542.72;5568158;32;32878;-68
2022/10/03 09:07:00;;;;;;;7.50;1.60;;;;;;;14.30;75.09;100549.97;5567940;32;33675;-68
2022/10/03 09:10:33;;;;;;;11.15;1.70;;;;;;;14.45;74.32;100540.12;5568696;32;34191;-68
2022/10/03 09:13:39;;;;;;;6.80;1.25;;;;;;;14.89;71.72;100568.50;5568280;32;34138;-68
2022/10/03 09:17:19;;;;;;;8.32;1.80;;;;;;;14.89;71.00;100560.50;5568337;32;34338;-69
2022/10/03 09:20:42;;;;;;;8.73;1.83;;;;;;;15.00;70.02;100552.81;5568280;32;34647;-68
2022/10/03 09:24:12;;;;;;;7.30;1.70;;;;;;;15.01;70.82;100556.28;5568226;32;34585;-69
2022/10/03 09:27:16;;;;;;;;;;;;;;;15.24;69.25;100548.91;5568403;32;34791;-70
2022/10/03 09:30:39;;;;;;;6.03;1.45;;;;;;;15.19;68.53;100564.69;5568188;32;35120;-67
2022/10/03 09:33:54;;;;;;;9.88;1.40;;;;;;;15.02;69.11;100558.75;5567393;32;32567;-68
2022/10/03 09:37:00;;;;;;;11.30;2.10;;;;;;;14.88;69.32;100561.50;5568735;32;34275;-69
2022/10/03 09:40:24;;;;;;;11.07;1.50;;;;;;;15.42;67.47;100549.22;5570179;31;34428;-69
2022/10/03 09:43:43;;;;;;;11.30;1.80;;;;;;;15.52;66.32;100554.25;5573585;31;34208;-68
2022/10/03 09:50:46;;;;;;;7.10;1.52;;;;;;;15.15;67.06;100532.16;5587505;31;35562;-68
2022/10/03 09:54:17;;;;;;;15.13;1.83;;;;;;;14.98;69.21;100540.66;5573592;31;33682;-68
2022/10/03 09:58:00;;;;;;;5.43;1.73;;;;;;;15.33;69.83;100545.06;5587359;31;34224;-70
2022/10/03 10:01:29;;;;;;;10.35;1.67;;;;;;;15.57;67.66;100559.84;5587576;31;35473;-68
2022/10/03 10:04:53;;;;;;;10.10;1.77;;;;;;;15.35;66.96;100550.19;5590160;31;34250;-68
2022/10/03 10:08:24;;;;;;;7.85;1.70;;;;;;;15.26;67.39;100549.50;5590522;31;34930;-68
2022/10/03 10:12:00;;;;;;;8.00;2.03;;;;;;;15.23;68.73;100540.03;5576810;31;34178;-68
2022/10/03 10:15:25;;;;;;;6.85;1.52;;;;;;;14.92;70.24;100549.41;5590507;31;34815;-70
2022/10/03 10:18:55;;;;;;;6.93;1.65;;;;;;;15.24;69.10;100548.91;5590155;31;34161;-67
2022/10/03 10:22:47;;;;;;;7.53;1.52;;;;;;;15.33;68.63;100546.91;5580634;31;34010;-70
2022/10/03 10:25:52;;;;;;;4.93;1.10;;;;;;;15.22;67.06;100542.91;5576051;31;32792;-67
2022/10/03 10:29:07;;;;;;;11.20;1.62;;;;;;;15.31;67.55;100554.28;5589983;31;34916;-67
2022/10/03 10:32:55;;;;;;;6.72;1.15;;;;;;;15.26;69.33;100554.84;5576144;31;34241;-68
2022/10/03 10:36:36;;;;;;;6.03;1.25;;;;;;;15.73;66.33;100570.25;5589828;31;34339;-66
2022/10/03 10:40:01;;;;;;;7.68;1.62;;;;;;;15.44;66.33;100560.53;5575586;31;34401;-69
2022/10/03 10:43:42;;;;;;;6.28;1.58;;;;;;;15.43;66.46;100544.72;5589928;31;34860;-67
2022/10/03 10:47:16;;;;;;;7.22;1.12;;;;;;;16.08;63.26;100547.78;5575718;31;33061;-67
2022/10/03 10:50:24;;;;;;;12.60;1.65;;;;;;;15.69;64.60;100552.91;5589824;31;34530;-68
2022/10/03 10:54:05;;;;;;;8.20;1.20;;;;;;;15.38;67.08;100533.78;5589944;31;35011;-69
2022/10/03 10:57:21;;;;;;;4.30;1.30;;;;;;;15.87;65.61;100552.41;5589898;31;34252;-67
2022/10/03 11:00:54;;;;;;;11.27;1.80;;;;;;;15.81;65.16;100529.13;5589590;31;34816;-68
2022/10/03 11:04:22;;;;;;;5.05;1.30;;;;;;;16.05;64.34;100544.69;5576027;31;33646;-68
2022/10/03 11:07:54;;;;;;;5.70;1.65;;;;;;;15.39;66.63;100535.44;5589648;31;34889;-67
2022/10/03 11:11:18;;;;;;;5.80;1.20;;;;;;;15.37;67.53;100534.78;5589609;31;34230;-68
2022/10/03 11:14:30;;;;;;;3.05;1.17;;;;;;;15.91;63.75;100540.28;5589132;31;34243;-68
2022/10/03 11:18:06;;;;;;;6.80;1.05;;;;;;;16.53;62.71;100557.00;5589695;31;35236;-70
2022/10/03 11:21:41;;;;;;;5.35;1.50;;;;;;;17.01;59.87;100548.03;5564134;31;34091;-69
2022/10/03 11:25:06;;;;;;;8.93;1.10;;;;;;;16.51;61.41;100552.84;5575441;31;33456;-68
2022/10/03 11:28:40;;;;;;;10.43;1.12;;;;;;;18.42;57.14;100572.34;5589592;31;34174;-70
2022/10/03 11:32:20;;;;;;;4.78;1.02;;;;;;;20.96;49.48;100549.50;5589538;31;34419;-71
2022/10/03 11:35:27;;;;;;;4.80;1.10;;;;;;;20.08;50.91;100538.50;5589489;31;34279;-70
2022/10/03 11:38:35;;;;;;;8.25;1.48;;;;;;;17.57;59.25;100551.12;5589476;31;34210;-69
2022/10/03 11:41:56;;;;;;;4.62;1.10;;;;;;;16.36;63.56;100542.31;5575156;31;33863;-69
2022/10/03 11:45:16;;;;;;;7.32;1.30;;;;;;;15.55;67.41;100543.16;5575334;31;33441;-70
2022/10/03 11:49:00;;;;;;;7.53;1.12;;;;;;;15.40;69.40;100547.75;5575863;31;33597;-70
2022/10/03 11:52:24;;;;;;;4.05;1.12;;;;;;;15.05;71.13;100538.87;5477675;32;34275;-69
2022/10/03 11:55:38;;;;;;;3.42;1.00;;;;;;;15.03;70.42;100560.44;5478106;32;32823;-68
2022/10/03 11:59:00;;;;;;;3.62;1.10;;;;;;;14.96;70.36;100545.37;5478090;32;34339;-69
2022/10/03 12:02:06;;;;;;;2.58;1.00;;;;;;;15.09;71.76;100548.16;5490412;32;34139;-68
2022/10/03 12:05:39;;;;;;;4.15;1.05;;;;;;;14.76;73.34;100535.31;5490677;32;34094;-68
2022/10/03 12:08:57;;;;;;;4.72;1.00;;;;;;;14.56;78.48;100552.16;5477988;32;33743;-70
2022/10/03 12:12:29;;;;;;;3.25;1.10;;;;;;;13.79;87.57;100554.47;5490490;32;34173;-71
2022/10/03 12:15:45;;;;;;;4.47;1.10;;;;;;;13.42;95.38;100539.38;5477293;32;33074;-69
2022/10/03 12:18:53;;;;;;;4.40;1.20;;;;;;;14.17;92.73;100537.31;5477710;32;34167;-68
2022/10/03 12:22:06;;;;;;;4.75;1.37;;;;;;;14.99;84.18;100536.97;5495253;31;34859;-69
2022/10/03 12:25:29;;;;;;;5.47;1.08;;;;;;;15.80;79.06;100587.16;5575024;31;33564;-70
2022/10/03 12:28:41;;;;;;;4.85;1.40;;;;;;;13.48;93.66;100552.81;5575520;31;34411;-71
2022/10/03 12:32:00;;;;;;;4.85;1.00;;;;;;;13.72;96.72;100551.72;5588946;31;34389;-69
2022/10/03 12:35:37;;;;;;;4.05;1.00;;;;;;;16.50;75.66;100556.59;5588720;31;34238;-69
2022/10/03 12:38:42;;;;;;;4.95;0.90;;;;;;;17.97;66.27;100549.16;5581891;31;217168;-70
2022/10/03 12:42:13;;;;;;;4.68;1.00;;;;;;;16.50;73.76;100562.78;5574686;31;32922;-70
2022/10/03 12:45:31;;;;;;;4.30;0.70;;;;;;;15.36;73.78;100550.00;5589115;31;34361;-69
2022/10/03 12:49:00;;;;;;;3.70;0.90;;;;;;;14.93;75.50;100543.06;5589013;31;34792;-69
2022/10/03 12:52:18;;;;;;;3.58;1.00;;;;;;;15.30;76.29;100545.41;5588354;31;34898;-68
2022/10/03 12:55:37;;;;;;;2.17;0.77;;;;;;;15.80;71.00;100538.16;5588399;31;34178;-68
2022/10/03 12:59:00;;;;;;;4.50;1.02;;;;;;;15.51;69.96;100540.06;5588426;31;34174;-68
2022/10/03 13:02:34;;;;;;;2.80;1.00;;;;;;;15.60;70.63;100536.22;5574676;31;35312;-69
2022/10/03 13:05:52;;;;;;;3.33;1.12;;;;;;;15.95;68.50;100536.19;5574459;31;33640;-67
2022/10/03 13:09:17;;;;;;;5.80;1.08;;;;;;;16.15;68.31;100545.13;5588231;31;34335;-69
2022/10/03 13:12:42;;;;;;;4.95;0.80;;;;;;;15.97;69.09;100543.00;5588083;31;34168;-69
2022/10/03 13:16:20;;;;;;;5.75;1.48;;;;;;;16.12;69.08;100547.41;5574334;31;32822;-66
2022/10/03 13:19:34;;;;;;;4.55;1.02;;;;;;;16.59;68.66;100563.44;5567498;31;32645;-67
2022/10/03 13:22:48;;;;;;;2.25;0.70;;;;;;;16.37;65.82;100552.00;5574142;31;32978;-68
2022/10/03 13:26:10;;;;;;;4.25;0.80;;;;;;;16.38;66.33;100559.00;5574013;31;33095;-65
2022/10/03 13:29:37;;;;;;;5.30;1.00;;;;;;;15.62;70.23;100552.06;5587743;31;34832;-68
2022/10/03 13:32:55;;;;;;;3.17;0.80;;;;;;;15.63;69.76;100545.72;5587386;31;34227;-68
2022/10/03 13:36:18;;;;;;;5.93;1.15;;;;;;;15.57;72.50;100538.47;5587776;31;35038;-67
2022/10/03 13:39:24;;;;;;;2.70;1.00;;;;;;;15.37;72.60;100540.97;5590318;31;34934;-68
2022/10/03 13:42:51;;;;;;;2.70;0.90;;;;;;;15.23;75.39;100548.06;5576190;31;33573;-68
2022/10/03 13:45:56;;;;;;;4.90;0.95;;;;;;;15.58;72.87;100542.78;5576121;31;34103;-68
2022/10/03 13:49:10;;;;;;;5.03;1.08;;;;;;;16.21;71.29;100541.66;5590081;31;34946;-66
2022/10/03 13:52:22;;;;;;;10.05;0.98;;;;;;;16.18;70.71;100538.53;5577593;31;34309;-68
2022/10/03 13:55:50;;;;;;;7.20;1.30;;;;;;;17.24;64.19;100537.72;5590000;31;34223;-67
2022/10/03 13:59:04;;;;;;;2.67;0.93;;;;;;;16.27;67.72;100542.69;5575560;31;34249;-68
2022/10/03 14:02:08;;;;;;;6.72;1.27;;;;;;;17.02;64.37;100537.12;5590047;31;34874;-69
2022/10/03 14:05:13;;;;;;;3.67;0.98;;;;;;;16.42;67.75;100541.50;5576201;31;33180;-67
2022/10/03 14:08:27;;;;;;;12.30;1.30;;;;;;;15.54;70.70;100539.66;5576159;31;32759;-66
2022/10/03 14:11:58;;;;;;;3.37;1.12;;;;;;;15.30;70.17;100536.59;5575621;31;32883;-69
2022/10/03 14:15:30;;;;;;;7.85;1.27;;;;;;;15.06;72.12;100548.50;5575834;31;37007;-68
2022/10/03 14:18:42;;;;;;;9.05;1.20;;;;;;;15.00;71.85;100535.94;5589499;31;34235;-67
2022/10/03 14:21:56;;;;;;;8.48;1.42;;;;;;;15.18;71.73;100536.28;5589288;31;34850;-67
2022/10/03 14:25:22;;;;;;;3.80;1.00;;;;;;;15.19;71.24;100545.97;5575729;31;32674;-68
2022/10/03 14:28:40;;;;;;;4.35;0.73;;;;;;;15.02;70.91;100533.91;5589320;31;34593;-68
2022/10/03 14:31:56;;;;;;;8.43;0.98;;;;;;;15.01;71.49;100538.41;5589631;31;34460;-69
2022/10/03 14:35:04;;;;;;;2.12;0.80;;;;;;;14.94;70.22;100526.84;5575144;31;34195;-66
2022/10/03 14:42:45;;;;;;;4.45;0.82;;;;;;;14.88;70.80;100532.13;5572006;31;34913;-68
2022/10/03 14:45:55;;;;;;;2.12;0.57;;;;;;;14.77;70.75;100542.31;5589788;31;34298;-68
2022/10/03 14:49:04;;;;;;;3.60;0.98;;;;;;;14.70;69.84;100528.06;5574572;31;35057;-68
2022/10/03 14:52:40;;;;;;;3.22;1.10;;;;;;;14.67;70.17;100524.94;5589377;31;34141;-69
2022/10/03 14:55:58;;;;;;;2.40;1.15;;;;;;;14.61;71.59;100539.91;5589481;31;34849;-67
2022/10/03 14:59:17;;;;;;;4.97;1.00;;;;;;;14.53;71.30;100529.31;5589006;31;34770;-67
2022/10/03 15:02:37;;;;;;;3.17;0.90;;;;;;;14.50;69.40;100534.22;5589766;31;34302;-68
2022/10/03 15:05:55;;;;;;;4.18;1.00;;;;;;;14.53;68.54;100544.50;5588344;31;32865;-68
2022/10/03 15:09:08;;;;;;;3.78;0.85;;;;;;;14.49;68.48;100537.91;5589017;31;35365;-68
2022/10/03 15:12:22;;;;;;;2.08;1.08;;;;;;;14.47;68.91;100535.44;5588828;31;34289;-68
2022/10/03 15:15:34;;;;;;;2.08;1.08;;;;;;;14.45;68.99;100547.31;5589675;31;34642;-68
2022/10/03 15:18:51;;;;;;;3.15;0.80;;;;;;;14.39;70.05;100545.37;5589589;31;34171;-69
2022/10/03 15:22:12;;;;;;;3.28;1.02;;;;;;;14.35;70.21;100551.06;5588938;31;34249;-67
2022/10/03 15:25:35;;;;;;;3.37;1.20;;;;;;;14.33;70.91;100545.09;5574937;31;34438;-68
2022/10/03 15:28:50;;;;;;;5.12;0.93;;;;;;;14.40;70.67;100534.53;5588960;31;34292;-68
2022/10/03 15:31:57;;;;;;;3.67;1.30;;;;;;;14.27;70.98;100543.19;5575161;31;33068;-68
2022/10/03 15:35:03;;;;;;;4.32;1.10;;;;;;;14.26;71.28;100548.72;5588959;31;34266;-67
2022/10/03 15:38:16;;;;;;;4.97;1.23;;;;;;;14.22;71.26;100540.25;5589458;31;34075;-67
2022/10/03 15:41:31;;;;;;;4.37;0.90;;;;;;;14.22;70.95;100537.59;5589045;31;34699;-71
2022/10/03 15:44:38;;;;;;;4.57;0.90;;;;;;;14.12;70.81;100537.06;5575332;31;32912;-68
2022/10/03 15:47:45;;;;;;;4.35;0.95;;;;;;;14.19;69.77;100545.94;5589057;31;34175;-68
2022/10/03 15:50:57;;;;;;;2.65;1.17;;;;;;;14.11;69.64;100545.25;5588546;31;34547;-69
2022/10/03 15:54:08;;;;;;;4.32;1.10;;;;;;;14.01;70.30;100542.84;5589287;31;34233;-68
2022/10/03 15:57:29;;;;;;;4.07;1.02;;;;;;;13.94;70.02;100534.75;5589054;31;34239;-67
2022/10/03 16:00:36;;;;;;;2.58;0.90;;;;;;;13.93;70.28;100540.31;5574706;31;33621;-68